createdAt,value
2022-12-07T00:01:46.416Z,9.90
2022-12-07T00:04:16.340Z,9.93
2022-12-07T00:06:45.804Z,9.53
2022-12-07T00:09:16.345Z,9.80
2022-12-07T00:11:45.346Z,9.53
2022-12-07T00:14:15.982Z,9.90
2022-12-07T00:16:50.719Z,9.40
2022-12-07T00:19:18.941Z,10.07
2022-12-07T00:21:47.036Z,9.53
2022-12-07T00:24:15.228Z,9.10
2022-12-07T00:26:45.550Z,10.27
2022-12-07T00:29:17.584Z,9.93
2022-12-07T00:31:47.495Z,10.40
2022-12-07T00:34:17.724Z,10.40
2022-12-07T00:36:45.839Z,9.43
2022-12-07T00:39:14.048Z,9.00
2022-12-07T00:41:42.193Z,9.07
2022-12-07T00:44:10.351Z,10.00
2022-12-07T00:46:38.586Z,10.10
2022-12-07T00:49:08.138Z,8.90
2022-12-07T00:51:36.294Z,9.07
2022-12-07T00:54:04.473Z,10.00
2022-12-07T00:56:32.647Z,9.00
2022-12-07T00:59:03.761Z,9.50
2022-12-07T01:01:33.484Z,9.87
2022-12-07T01:04:02.374Z,8.93
2022-12-07T01:06:32.603Z,9.57
2022-12-07T01:09:01.238Z,9.60
2022-12-07T01:11:31.746Z,8.80
2022-12-07T01:14:01.463Z,9.63
2022-12-07T01:16:31.747Z,9.50
2022-12-07T01:19:02.072Z,10.00
2022-12-07T01:21:35.751Z,10.00
2022-12-07T01:24:04.635Z,9.13
2022-12-07T01:26:32.997Z,9.73
2022-12-07T01:29:01.881Z,9.90
2022-12-07T01:31:31.807Z,10.17
2022-12-07T01:34:01.425Z,9.33
2022-12-07T01:36:32.638Z,9.40
2022-12-07T01:39:02.500Z,9.27
2022-12-07T01:41:32.364Z,9.73
2022-12-07T01:44:22.746Z,8.70
2022-12-07T01:46:52.525Z,10.07
2022-12-07T01:49:26.969Z,9.80
2022-12-07T01:52:03.336Z,9.27
2022-12-07T01:54:31.728Z,9.30
2022-12-07T01:57:01.413Z,8.83
2022-12-07T01:59:29.710Z,9.40
2022-12-07T02:01:58.384Z,9.33
2022-12-07T02:04:26.922Z,10.07
2022-12-07T02:06:57.837Z,9.17
2022-12-07T02:09:26.193Z,9.50
2022-12-07T02:11:56.049Z,9.60
2022-12-07T02:14:24.221Z,8.80
2022-12-07T02:17:07.967Z,9.70
2022-12-07T02:20:12.061Z,9.53
2022-12-07T02:23:02.478Z,9.33
2022-12-07T02:25:47.481Z,9.87
2022-12-07T02:28:28.528Z,10.00
2022-12-07T02:31:03.985Z,9.30
2022-12-07T02:33:37.791Z,9.07
2022-12-07T02:36:12.447Z,8.93
2022-12-07T02:38:47.324Z,7.93
2022-12-07T02:41:20.146Z,9.07
2022-12-07T02:43:52.972Z,9.17
2022-12-07T02:46:26.137Z,9.57
2022-12-07T02:48:56.359Z,8.70
2022-12-07T02:51:25.192Z,9.40
2022-12-07T02:53:53.369Z,9.73
2022-12-07T02:56:29.798Z,9.20
2022-12-07T02:59:09.629Z,8.73
2022-12-07T03:01:48.107Z,8.67
2022-12-07T03:04:34.733Z,9.23
2022-12-07T03:07:13.225Z,9.37
2022-12-07T03:09:50.043Z,9.40
2022-12-07T03:12:22.491Z,10.17
2022-12-07T03:14:57.284Z,8.73
2022-12-07T03:17:29.459Z,8.93
2022-12-07T03:20:01.538Z,8.97
2022-12-07T03:22:33.812Z,9.77
2022-12-07T03:25:07.073Z,9.03
2022-12-07T03:27:39.331Z,8.50
2022-12-07T03:30:11.653Z,8.47
2022-12-07T03:32:45.396Z,8.30
2022-12-07T03:35:19.529Z,8.67
2022-12-07T03:37:51.801Z,7.57
2022-12-07T03:40:24.851Z,8.30
2022-12-07T03:42:54.666Z,8.53
2022-12-07T03:45:30.452Z,8.17
2022-12-07T03:48:08.230Z,9.60
2022-12-07T03:50:42.926Z,7.97
2022-12-07T03:53:17.494Z,8.17
2022-12-07T03:55:47.981Z,8.47
2022-12-07T03:58:19.585Z,8.70
2022-12-07T04:00:48.890Z,8.17
2022-12-07T04:03:18.806Z,8.80
2022-12-07T04:05:49.837Z,8.40
2022-12-07T04:08:18.108Z,8.43
2022-12-07T04:10:46.270Z,9.50
2022-12-07T04:13:14.425Z,7.87
2022-12-07T04:15:42.677Z,8.30
2022-12-07T04:18:10.952Z,8.90
2022-12-07T04:20:40.566Z,8.80
2022-12-07T04:23:08.723Z,7.97
2022-12-07T04:25:36.860Z,6.63
2022-12-07T04:28:05.264Z,9.50
2022-12-07T04:30:33.442Z,8.30
2022-12-07T04:33:01.613Z,8.67
2022-12-07T04:35:29.744Z,7.57
2022-12-07T04:37:59.234Z,9.17
2022-12-07T04:40:27.446Z,7.63
2022-12-07T04:42:55.648Z,8.20
2022-12-07T04:45:23.801Z,9.23
2022-12-07T04:47:52.104Z,8.67
2022-12-07T04:50:20.304Z,9.30
2022-12-07T04:52:48.504Z,8.00
2022-12-07T04:55:18.185Z,8.73
2022-12-07T04:57:46.384Z,8.50
2022-12-07T05:00:14.709Z,8.67
2022-12-07T05:02:42.820Z,8.87
2022-12-07T05:05:10.979Z,9.07
2022-12-07T05:07:39.167Z,9.40
2022-12-07T05:10:08.722Z,8.60
2022-12-07T05:12:38.471Z,9.00
2022-12-07T05:15:07.621Z,8.43
2022-12-07T05:17:35.813Z,8.10
2022-12-07T05:20:04.614Z,9.20
2022-12-07T05:22:32.912Z,8.97
2022-12-07T05:25:04.044Z,9.47
2022-12-07T05:27:32.236Z,8.20
2022-12-07T05:30:02.232Z,9.57
2022-12-07T05:32:30.574Z,8.80
2022-12-07T05:34:58.838Z,8.57
2022-12-07T05:37:26.948Z,8.50
2022-12-07T05:39:55.178Z,9.00
2022-12-07T05:42:23.440Z,8.90
2022-12-07T05:44:51.683Z,7.87
2022-12-07T05:47:21.451Z,8.47
2022-12-07T05:49:49.794Z,8.97
2022-12-07T05:52:18.095Z,9.00
2022-12-07T05:54:46.343Z,8.87
2022-12-07T05:57:14.478Z,9.53
2022-12-07T05:59:41.664Z,8.57
2022-12-07T06:02:12.517Z,8.57
2022-12-07T06:04:44.110Z,8.80
2022-12-07T06:07:13.506Z,8.20
2022-12-07T06:09:41.644Z,9.57
2022-12-07T06:12:30.143Z,8.70
2022-12-07T06:14:58.669Z,8.20
2022-12-07T06:17:27.381Z,8.20
2022-12-07T06:19:56.944Z,8.60
2022-12-07T06:22:25.093Z,9.10
2022-12-07T06:24:53.240Z,8.63
2022-12-07T06:27:21.485Z,8.43
2022-12-07T06:29:49.657Z,8.80
2022-12-07T06:32:17.929Z,8.47
2022-12-07T06:34:47.636Z,8.90
2022-12-07T06:37:17.201Z,8.70
2022-12-07T06:39:46.074Z,9.53
2022-12-07T06:42:14.225Z,8.67
2022-12-07T06:44:42.353Z,8.63
2022-12-07T06:47:39.621Z,8.50
2022-12-07T06:49:58.593Z,7.63
2022-12-07T06:52:28.105Z,9.43
2022-12-07T06:54:56.348Z,8.30
2022-12-07T06:57:27.845Z,8.63
2022-12-07T06:59:56.067Z,8.33
2022-12-07T07:02:24.262Z,8.87
2022-12-07T07:04:52.470Z,9.27
2022-12-07T07:07:20.586Z,8.07
2022-12-07T07:09:50.293Z,9.53
2022-12-07T07:12:18.508Z,8.37
2022-12-07T07:14:46.609Z,8.30
2022-12-07T07:17:14.802Z,8.70
2022-12-07T07:19:43.064Z,8.83
2022-12-07T07:22:11.194Z,9.20
2022-12-07T07:24:39.378Z,9.10
2022-12-07T07:27:08.873Z,8.80
2022-12-07T07:29:37.115Z,8.97
2022-12-07T07:32:07.041Z,9.10
2022-12-07T07:34:35.408Z,9.37
2022-12-07T07:37:03.643Z,8.37
2022-12-07T07:39:31.819Z,8.83
2022-12-07T07:42:00.049Z,8.60
2022-12-07T07:44:35.133Z,9.03
2022-12-07T07:47:04.219Z,9.00
2022-12-07T07:49:32.418Z,9.10
2022-12-07T07:52:01.488Z,9.50
2022-12-07T07:54:29.780Z,8.80
2022-12-07T07:56:57.929Z,9.33
2022-12-07T07:59:26.777Z,8.90
2022-12-07T08:01:56.491Z,8.60
2022-12-07T08:04:25.268Z,9.50
2022-12-07T08:06:54.958Z,8.77
2022-12-07T08:09:23.305Z,9.40
2022-12-07T08:11:51.736Z,9.40
2022-12-07T08:14:20.151Z,9.33
2022-12-07T08:16:48.654Z,9.07
2022-12-07T08:19:18.817Z,9.63
2022-12-07T08:21:46.996Z,9.97
2022-12-07T08:24:15.138Z,9.60
2022-12-07T08:26:43.981Z,8.63
2022-12-07T08:29:12.670Z,8.50
2022-12-07T08:31:40.988Z,9.57
2022-12-07T08:34:09.247Z,8.70
2022-12-07T08:36:38.843Z,8.93
2022-12-07T08:41:55.474Z,8.67
2022-12-07T08:44:23.921Z,9.10
2022-12-07T08:46:56.092Z,9.70
2022-12-07T08:49:28.112Z,9.93
2022-12-07T08:51:58.186Z,10.53
2022-12-07T08:54:27.226Z,9.33
2022-12-07T08:56:59.426Z,10.03
2022-12-07T08:59:30.017Z,8.63
2022-12-07T09:01:58.547Z,9.70
2022-12-07T09:04:27.180Z,9.30
2022-12-07T09:06:57.979Z,9.30
2022-12-07T09:09:26.249Z,10.70
2022-12-07T09:11:54.664Z,9.17
2022-12-07T09:14:22.881Z,9.70
2022-12-07T09:16:51.618Z,9.30
2022-12-07T09:19:19.830Z,9.87
2022-12-07T09:21:48.017Z,10.00
2022-12-07T09:24:17.675Z,9.53
2022-12-07T09:26:45.874Z,8.77
2022-12-07T09:29:14.068Z,8.80
2022-12-07T09:31:42.481Z,9.30
2022-12-07T09:34:10.838Z,9.47
2022-12-07T09:36:39.018Z,9.60
2022-12-07T09:39:07.677Z,8.87
2022-12-07T09:41:40.650Z,9.37
2022-12-07T09:44:12.537Z,9.57
2022-12-07T09:46:42.836Z,9.37
2022-12-07T09:49:16.263Z,10.97
2022-12-07T09:51:44.988Z,10.90
2022-12-07T09:54:16.152Z,9.67
2022-12-07T09:56:46.344Z,9.83
2022-12-07T09:59:18.953Z,8.90
2022-12-07T10:01:49.689Z,8.90
2022-12-07T10:04:20.474Z,8.93
2022-12-07T10:06:52.309Z,9.40
2022-12-07T10:09:22.163Z,8.70
2022-12-07T10:12:07.157Z,9.00
2022-12-07T10:15:08.686Z,9.80
2022-12-07T10:17:37.217Z,9.60
2022-12-07T10:20:27.633Z,9.43
2022-12-07T10:23:05.587Z,9.90
2022-12-07T10:25:35.553Z,9.97
2022-12-07T10:28:17.239Z,9.70
2022-12-07T10:30:57.909Z,9.73
2022-12-07T10:33:38.397Z,10.07
2022-12-07T10:36:29.279Z,10.33
2022-12-07T10:39:03.103Z,10.03
2022-12-07T10:41:31.485Z,9.67
2022-12-07T10:44:01.226Z,9.90
2022-12-07T10:47:15.524Z,10.10
2022-12-07T10:50:13.470Z,9.63
2022-12-07T10:52:56.368Z,9.83
2022-12-07T10:55:29.098Z,9.13
2022-12-07T10:58:23.464Z,9.57
2022-12-07T11:01:00.912Z,8.70
2022-12-07T11:03:46.054Z,8.17
2022-12-07T11:06:24.270Z,9.13
2022-12-07T11:09:06.229Z,8.40
2022-12-07T11:11:39.722Z,8.70
2022-12-07T11:14:19.285Z,8.90
2022-12-07T11:16:57.243Z,8.70
2022-12-07T11:19:45.348Z,8.77
2022-12-07T11:22:20.851Z,7.93
2022-12-07T11:24:57.745Z,7.10
2022-12-07T11:27:34.474Z,7.80
2022-12-07T11:30:18.471Z,7.43
2022-12-07T11:33:09.745Z,6.67
2022-12-07T11:35:47.654Z,5.03
2022-12-07T11:38:20.920Z,4.37
2022-12-07T11:40:57.672Z,4.40
2022-12-07T11:43:29.958Z,4.87
2022-12-07T11:46:02.288Z,3.70
2022-12-07T11:48:36.569Z,4.00
2022-12-07T11:51:05.826Z,5.10
2022-12-07T11:53:40.322Z,4.57
2022-12-07T11:56:13.493Z,3.77
2022-12-07T11:58:50.864Z,3.50
2022-12-07T12:01:37.412Z,2.97
2022-12-07T12:04:19.065Z,3.40
2022-12-07T12:06:48.305Z,3.63
2022-12-07T12:15:40.811Z,3.13
2022-12-07T12:18:23.984Z,3.20
2022-12-07T12:20:58.394Z,3.13
2022-12-07T12:23:36.575Z,3.10
2022-12-07T12:26:09.614Z,3.10
2022-12-07T12:28:49.840Z,3.17
2022-12-07T12:31:36.344Z,2.90
2022-12-07T12:34:26.192Z,3.47
2022-12-07T12:36:55.965Z,2.67
2022-12-07T12:39:26.536Z,3.37
2022-12-07T12:42:08.875Z,3.80
2022-12-07T12:45:21.755Z,3.17
2022-12-07T12:48:29.802Z,6.07
2022-12-07T12:51:36.710Z,6.40
2022-12-07T12:54:12.844Z,7.90
2022-12-07T12:56:49.799Z,7.57
2022-12-07T12:59:28.262Z,7.23
2022-12-07T13:02:08.193Z,7.37
2022-12-07T13:04:53.902Z,6.80
2022-12-07T13:07:58.341Z,6.47
2022-12-07T13:10:44.268Z,5.87
2022-12-07T13:13:33.629Z,6.50
2022-12-07T13:16:41.864Z,6.50
2022-12-07T13:19:56.024Z,5.60
2022-12-07T13:22:56.707Z,2.07
2022-12-07T13:25:51.485Z,2.53
2022-12-07T13:28:21.899Z,2.10
2022-12-07T13:31:02.100Z,2.40
2022-12-07T13:33:31.941Z,3.10
2022-12-07T13:36:01.518Z,2.87
2022-12-07T13:38:32.200Z,2.87
2022-12-07T13:41:13.074Z,3.80
2022-12-07T13:43:50.296Z,2.80
2022-12-07T13:46:21.667Z,2.97
2022-12-07T13:48:51.585Z,2.87
2022-12-07T13:51:22.031Z,2.93
2022-12-07T13:53:51.513Z,3.20
2022-12-07T13:56:24.403Z,3.13
2022-12-07T13:58:53.774Z,3.07
2022-12-07T14:01:23.035Z,3.50
2022-12-07T14:03:51.308Z,3.30
2022-12-07T14:06:29.459Z,2.90
2022-12-07T14:09:21.455Z,2.60
2022-12-07T14:11:52.948Z,3.30
2022-12-07T14:14:23.973Z,3.47
2022-12-07T14:17:01.081Z,2.93
2022-12-07T14:19:49.343Z,4.03
2022-12-07T14:22:29.696Z,3.90
2022-12-07T14:25:24.742Z,3.43
2022-12-07T14:27:58.508Z,3.73
2022-12-07T14:30:29.692Z,3.20
2022-12-07T14:33:01.162Z,3.90
2022-12-07T14:35:30.221Z,3.53
2022-12-07T14:37:58.502Z,3.70
2022-12-07T14:40:28.988Z,3.37
2022-12-07T14:43:02.037Z,4.20
2022-12-07T14:45:30.610Z,3.30
2022-12-07T14:53:42.808Z,2.90
2022-12-07T14:56:11.103Z,2.90
2022-12-07T14:58:43.311Z,3.67
2022-12-07T15:01:11.573Z,2.93
2022-12-07T15:03:39.874Z,3.13
2022-12-07T15:06:09.042Z,2.90
2022-12-07T15:08:37.394Z,3.10
2022-12-07T15:11:05.768Z,3.10
2022-12-07T15:13:51.187Z,2.53
2022-12-07T15:16:22.987Z,2.73
2022-12-07T15:19:26.203Z,2.93
2022-12-07T15:21:43.588Z,2.60
2022-12-07T15:24:13.032Z,2.73
2022-12-07T15:26:42.040Z,2.50
2022-12-07T15:29:11.815Z,2.20
2022-12-07T15:31:55.969Z,2.00
2022-12-07T15:34:25.880Z,1.83
2022-12-07T15:36:54.039Z,2.07
2022-12-07T15:39:22.670Z,1.80
2022-12-07T15:41:51.968Z,2.40
2022-12-07T15:44:37.828Z,2.60
2022-12-07T15:47:08.151Z,2.30
2022-12-07T15:49:36.411Z,2.50
2022-12-07T15:52:07.498Z,2.50
2022-12-07T15:54:35.749Z,2.50
2022-12-07T15:57:03.983Z,2.77
2022-12-07T15:59:32.161Z,3.10
2022-12-07T16:02:00.632Z,2.43
2022-12-07T16:04:31.229Z,3.00
2022-12-07T16:06:59.744Z,3.00
2022-12-07T16:09:27.957Z,3.40
2022-12-07T16:11:56.472Z,3.13
2022-12-07T16:14:24.920Z,2.70
2022-12-07T16:16:53.116Z,3.43
2022-12-07T16:19:21.405Z,3.93
2022-12-07T16:21:51.049Z,4.23
2022-12-07T16:24:19.237Z,3.60
2022-12-07T16:26:50.244Z,3.40
2022-12-07T16:29:20.051Z,3.47
2022-12-07T16:31:48.574Z,3.37
2022-12-07T16:34:17.062Z,2.60
2022-12-07T16:37:15.448Z,2.17
2022-12-07T16:39:36.127Z,2.00
2022-12-07T16:42:04.770Z,2.20
2022-12-07T16:44:33.141Z,2.07
2022-12-07T16:47:01.930Z,2.07
2022-12-07T16:49:30.617Z,1.97
2022-12-07T16:52:18.646Z,2.00
2022-12-07T16:54:48.905Z,1.80
2022-12-07T16:57:22.515Z,1.93
2022-12-07T16:59:51.878Z,2.30
2022-12-07T17:02:20.544Z,2.40
2022-12-07T17:04:48.751Z,2.20
2022-12-07T17:07:16.965Z,2.13
2022-12-07T17:09:45.218Z,2.20
2022-12-07T17:12:14.797Z,2.50
2022-12-07T17:15:00.502Z,2.60
2022-12-07T17:17:28.882Z,2.60
2022-12-07T17:19:57.012Z,3.37
2022-12-07T17:22:25.308Z,3.13
2022-12-07T17:24:53.660Z,4.00
2022-12-07T17:27:23.474Z,3.50
2022-12-07T17:29:51.676Z,3.40
2022-12-07T17:32:19.856Z,3.20
2022-12-07T17:34:48.154Z,4.10
2022-12-07T17:37:16.325Z,4.30
2022-12-07T17:39:44.977Z,4.00
2022-12-07T17:42:29.755Z,4.10
2022-12-07T17:44:59.780Z,3.57
2022-12-07T17:47:28.184Z,3.83
2022-12-07T17:49:57.848Z,3.97
2022-12-07T17:52:45.296Z,4.07
2022-12-07T17:55:13.457Z,5.00
2022-12-07T17:57:41.749Z,4.30
2022-12-07T18:00:13.001Z,3.80
2022-12-07T18:02:41.325Z,4.43
2022-12-07T18:05:11.272Z,4.73
2022-12-07T18:07:39.574Z,4.27
2022-12-07T18:10:09.317Z,3.73
2022-12-07T18:12:37.747Z,5.30
2022-12-07T18:15:06.907Z,4.70
2022-12-07T18:17:36.502Z,5.33
2022-12-07T18:20:08.898Z,5.50
2022-12-07T18:22:37.638Z,4.60
2022-12-07T18:25:06.743Z,5.43
2022-12-07T18:27:35.081Z,5.17
2022-12-07T18:30:03.320Z,4.57
2022-12-07T18:32:31.517Z,4.70
2022-12-07T18:35:01.850Z,5.10
2022-12-07T18:37:30.337Z,4.70
2022-12-07T18:39:59.192Z,5.20
2022-12-07T18:42:27.414Z,5.00
2022-12-07T18:44:55.989Z,5.50
2022-12-07T18:47:24.138Z,5.10
2022-12-07T18:49:52.438Z,6.23
2022-12-07T18:52:21.935Z,6.20
2022-12-07T18:54:50.174Z,6.10
2022-12-07T18:57:18.453Z,6.57
2022-12-07T18:59:50.012Z,7.10
2022-12-07T19:02:20.161Z,7.17
2022-12-07T19:04:49.604Z,6.20
2022-12-07T19:07:18.721Z,6.93
2022-12-07T19:09:49.198Z,6.90
2022-12-07T19:12:17.375Z,6.53
2022-12-07T19:14:45.772Z,7.00
2022-12-07T19:17:14.917Z,6.87
2022-12-07T19:19:44.951Z,7.97
2022-12-07T19:22:16.321Z,7.43
2022-12-07T19:24:46.488Z,7.57
2022-12-07T19:27:16.786Z,6.80
2022-12-07T19:29:45.738Z,7.60
2022-12-07T19:32:14.646Z,7.47
2022-12-07T19:34:44.917Z,7.47
2022-12-07T19:37:14.124Z,7.37
2022-12-07T19:39:43.729Z,7.47
2022-12-07T19:42:12.268Z,7.20
2022-12-07T19:44:41.800Z,7.87
2022-12-07T19:47:10.885Z,7.30
2022-12-07T19:49:39.088Z,8.37
2022-12-07T19:52:09.624Z,7.40
2022-12-07T19:54:38.598Z,7.93
2022-12-07T19:57:09.414Z,7.57
2022-12-07T19:59:37.941Z,8.07
2022-12-07T20:02:07.742Z,7.37
2022-12-07T20:04:36.426Z,7.53
2022-12-07T20:07:04.791Z,9.07
2022-12-07T20:09:33.008Z,8.47
2022-12-07T20:12:18.425Z,8.53
2022-12-07T20:14:46.585Z,7.70
2022-12-07T20:17:16.203Z,7.90
2022-12-07T20:19:44.373Z,8.80
2022-12-07T20:22:12.539Z,8.50
2022-12-07T20:24:40.780Z,9.00
2022-12-07T20:27:08.934Z,8.70
2022-12-07T20:29:37.117Z,7.43
2022-12-07T20:32:05.714Z,7.80
2022-12-07T20:34:35.194Z,8.53
2022-12-07T20:37:03.344Z,7.70
2022-12-07T20:39:31.530Z,8.30
2022-12-07T20:42:17.028Z,8.20
2022-12-07T20:44:45.193Z,9.10
2022-12-07T20:47:13.334Z,8.60
2022-12-07T20:49:42.894Z,9.07
2022-12-07T20:52:11.053Z,9.10
2022-12-07T20:54:39.191Z,9.27
2022-12-07T20:57:07.415Z,9.70
2022-12-07T20:59:41.260Z,8.77
2022-12-07T21:02:12.680Z,9.07
2022-12-07T21:04:42.563Z,9.57
2022-12-07T21:07:10.735Z,9.00
2022-12-07T21:09:39.042Z,8.40
2022-12-07T21:12:11.166Z,9.67
2022-12-07T21:14:41.434Z,10.93
2022-12-07T21:17:09.857Z,10.00
2022-12-07T21:19:42.236Z,9.43
2022-12-07T21:22:10.364Z,10.30
2022-12-07T21:24:39.666Z,11.20
2022-12-07T21:27:07.958Z,11.67
2022-12-07T21:29:43.733Z,10.57
2022-12-07T21:32:13.426Z,11.20
2022-12-07T21:34:42.974Z,12.60
2022-12-07T21:37:11.297Z,10.70
2022-12-07T21:39:39.454Z,10.80
2022-12-07T21:42:07.675Z,11.03
2022-12-07T21:44:35.991Z,13.50
2022-12-07T21:47:04.278Z,11.60
2022-12-07T21:49:35.489Z,11.30
2022-12-07T21:52:05.371Z,19.30
2022-12-07T21:54:34.005Z,13.00
2022-12-07T21:57:02.160Z,12.10
2022-12-07T21:59:30.351Z,10.40
2022-12-07T22:01:58.747Z,12.50
2022-12-07T22:04:28.044Z,11.90
2022-12-07T22:06:59.007Z,12.00
2022-12-07T22:09:30.333Z,10.70
2022-12-07T22:11:58.653Z,11.70
2022-12-07T22:14:44.404Z,11.93
2022-12-07T22:17:12.544Z,12.40
2022-12-07T22:19:40.667Z,11.43
2022-12-07T22:22:08.850Z,11.57
2022-12-07T22:24:38.451Z,11.13
2022-12-07T22:27:06.600Z,11.77
2022-12-07T22:29:34.774Z,11.47
2022-12-07T22:32:18.530Z,12.03
2022-12-07T22:34:51.359Z,11.63
2022-12-07T22:37:22.224Z,11.83
2022-12-07T22:39:51.784Z,11.00
2022-12-07T22:42:19.889Z,12.60
2022-12-07T22:44:48.353Z,12.83
2022-12-07T22:47:17.002Z,12.63
2022-12-07T22:49:45.457Z,12.50
2022-12-07T22:52:13.589Z,12.67
2022-12-07T22:54:41.732Z,12.80
2022-12-07T22:57:11.234Z,12.83
2022-12-07T22:59:39.449Z,11.20
2022-12-07T23:02:07.584Z,12.73
2022-12-07T23:04:35.748Z,13.00
2022-12-07T23:07:03.932Z,12.97
2022-12-07T23:09:32.129Z,13.40
2022-12-07T23:12:29.050Z,14.07
2022-12-07T23:14:58.556Z,14.40
2022-12-07T23:17:26.683Z,13.03
2022-12-07T23:19:56.325Z,13.70
2022-12-07T23:22:25.053Z,12.70
2022-12-07T23:24:53.362Z,12.77
2022-12-07T23:27:21.486Z,14.43
2022-12-07T23:29:52.752Z,14.00
2022-12-07T23:32:22.283Z,14.13
2022-12-07T23:34:50.528Z,14.60
2022-12-07T23:37:18.659Z,13.50
2022-12-07T23:39:46.813Z,13.60
2022-12-07T23:42:14.951Z,15.03
2022-12-07T23:44:43.174Z,14.20
2022-12-07T23:47:11.371Z,14.37
2022-12-07T23:49:41.032Z,15.10
2022-12-07T23:52:09.232Z,14.37
2022-12-07T23:54:37.371Z,13.73
2022-12-07T23:57:05.622Z,14.47
2022-12-07T23:59:33.884Z,14.70
